Time;durP1;ratioP1;P1;durP2;ratioP2;P2;SDS_P1;SDS_P2;PMS_P1;PMS_P2;Temp;Humidity;BMP_temperature;BMP_pressure;BME280_temperature;BME280_humidity;BME280_pressure;Samples;Min_cycle;Max_cycle;Signal;HPM_P1;HPM_P2
2022/07/13 00:01:57;;;;;;;1.02;0.70;;;;;;;15.97;67.17;99630.66;1721924;83;21018;-67
2022/07/13 00:04:28;;;;;;;2.10;0.70;;;;;;;15.95;67.11;99631.45;1717881;83;21480;-68
2022/07/13 00:06:58;;;;;;;2.33;0.80;;;;;;;15.94;67.14;99628.94;1718873;83;21052;-68
2022/07/13 00:09:28;;;;;;;1.82;0.70;;;;;;;15.92;67.11;99629.73;1721359;83;21113;-67
2022/07/13 00:11:57;;;;;;;0.53;0.53;;;;;;;15.92;67.11;99621.45;1722428;83;21009;-66
2022/07/13 00:14:28;;;;;;;1.15;0.70;;;;;;;15.94;67.04;99624.80;1716205;82;21572;-68
2022/07/13 00:16:58;;;;;;;0.95;0.78;;;;;;;15.93;67.04;99618.44;1712433;83;21075;-67
2022/07/13 00:19:27;;;;;;;1.45;0.60;;;;;;;15.88;67.16;99614.21;1716858;83;21022;-68
2022/07/13 00:21:57;;;;;;;0.88;0.70;;;;;;;15.87;67.23;99613.92;1712512;83;21058;-68
2022/07/13 00:24:27;;;;;;;2.20;0.80;;;;;;;15.86;67.30;99605.34;1717095;82;21113;-68
2022/07/13 00:26:59;;;;;;;3.30;0.60;;;;;;;15.85;67.26;99602.28;1715304;83;21447;-67
2022/07/13 00:29:29;;;;;;;0.60;0.60;;;;;;;15.79;67.35;99597.77;1715174;83;21050;-67
2022/07/13 00:31:59;;;;;;;2.77;0.70;;;;;;;15.77;67.47;99599.39;1703377;83;21054;-68
2022/07/13 00:34:32;;;;;;;0.57;0.50;;;;;;;15.82;67.56;99600.02;1702999;83;21110;-67
2022/07/13 00:37:01;;;;;;;2.67;0.72;;;;;;;15.84;67.57;99600.61;1696176;83;21014;-70
2022/07/13 00:39:32;;;;;;;1.47;0.70;;;;;;;15.82;67.60;99591.19;1715955;82;21454;-67
2022/07/13 00:42:02;;;;;;;0.95;0.60;;;;;;;15.79;67.63;99585.33;1703330;83;21053;-67
2022/07/13 00:44:32;;;;;;;1.10;0.90;;;;;;;15.77;67.72;99573.16;1705670;83;21038;-67
2022/07/13 00:47:03;;;;;;;1.85;0.70;;;;;;;15.76;67.73;99579.77;1711944;83;21538;-69
2022/07/13 00:49:32;;;;;;;0.68;0.53;;;;;;;15.77;67.69;99572.32;1677738;83;21075;-67
2022/07/13 00:52:03;;;;;;;1.57;0.70;;;;;;;15.78;67.69;99563.78;1715642;82;21826;-67
2022/07/13 00:54:35;;;;;;;1.10;0.60;;;;;;;15.78;67.64;99563.78;1705033;83;21098;-68
2022/07/13 00:57:05;;;;;;;3.30;0.60;;;;;;;15.77;67.74;99554.37;1715984;83;21030;-68
2022/07/13 00:59:36;;;;;;;0.90;0.70;;;;;;;15.77;67.76;99564.88;1715446;83;21078;-68
2022/07/13 01:02:06;;;;;;;0.90;0.75;;;;;;;15.75;67.72;99551.86;1703081;83;21545;-69
2022/07/13 01:04:36;;;;;;;0.72;0.60;;;;;;;15.72;67.77;99548.22;1703655;83;21415;-68
2022/07/13 01:07:06;;;;;;;1.22;0.50;;;;;;;15.74;67.87;99547.97;1710736;83;21089;-66
2022/07/13 01:09:38;;;;;;;0.60;0.60;;;;;;;15.76;67.81;99540.27;1692780;83;21105;-67
2022/07/13 01:12:09;;;;;;;2.50;0.78;;;;;;;15.78;67.92;99546.38;1702359;83;21038;-67
2022/07/13 01:14:43;;;;;;;2.37;0.70;;;;;;;15.76;67.96;99538.88;1660143;86;21053;-66
2022/07/13 01:17:14;;;;;;;0.90;0.62;;;;;;;15.74;67.99;99535.53;1659637;86;21115;-68
2022/07/13 01:19:45;;;;;;;1.00;0.60;;;;;;;15.70;68.06;99538.52;1660615;86;21053;-67
2022/07/13 01:22:18;;;;;;;2.10;0.60;;;;;;;15.67;68.16;99525.20;1659937;86;21036;-67
2022/07/13 01:24:49;;;;;;;5.17;0.80;;;;;;;15.67;68.24;99530.73;1688710;85;21054;-67
2022/07/13 01:27:20;;;;;;;1.10;0.60;;;;;;;15.65;68.12;99532.36;1671064;84;21449;-67
2022/07/13 01:29:51;;;;;;;1.42;0.62;;;;;;;15.63;68.33;99527.64;1666785;85;21070;-67
2022/07/13 01:32:22;;;;;;;1.07;0.68;;;;;;;15.61;68.44;99518.77;1666753;86;21098;-67
2022/07/13 01:34:52;;;;;;;1.07;0.80;;;;;;;15.60;68.49;99535.02;1666724;86;21005;-68
2022/07/13 01:37:24;;;;;;;2.47;0.80;;;;;;;15.59;68.49;99528.36;1666655;86;21037;-66
2022/07/13 01:39:53;;;;;;;1.12;0.70;;;;;;;15.58;68.68;99530.83;1647281;86;21070;-68
2022/07/13 01:42:25;;;;;;;1.42;0.70;;;;;;;15.58;68.94;99521.17;1610059;88;21070;-67
2022/07/13 01:44:54;;;;;;;1.20;0.72;;;;;;;15.55;69.08;99535.73;1601319;89;21553;-67
2022/07/13 01:47:25;;;;;;;0.95;0.80;;;;;;;15.51;69.78;99522.14;1603585;88;21082;-67
2022/07/13 01:49:54;;;;;;;1.62;0.82;;;;;;;15.48;70.12;99524.03;1628542;88;21075;-67
2022/07/13 01:52:25;;;;;;;3.92;1.00;;;;;;;15.46;70.69;99522.06;1628444;87;21549;-67
2022/07/13 01:54:56;;;;;;;2.35;0.78;;;;;;;15.45;70.85;99520.39;1628447;88;21075;-67
2022/07/13 01:57:26;;;;;;;1.12;0.70;;;;;;;15.42;71.45;99521.44;1628729;88;21050;-69
2022/07/13 02:00:03;;;;;;;2.80;1.00;;;;;;;15.37;71.74;99518.05;1642155;85;21045;-71
2022/07/13 02:02:35;;;;;;;3.40;1.32;;;;;;;15.35;72.09;99513.32;1687656;85;21063;-69
2022/07/13 02:05:05;;;;;;;1.70;0.80;;;;;;;15.29;72.31;99511.56;1671039;86;21051;-70
2022/07/13 02:07:36;;;;;;;2.47;0.80;;;;;;;15.26;72.67;99516.20;1669485;85;21068;-70
2022/07/13 02:10:07;;;;;;;2.35;0.80;;;;;;;15.22;73.06;99512.27;1688722;85;21115;-67
2022/07/13 02:12:39;;;;;;;4.00;0.93;;;;;;;15.20;73.39;99511.69;1670824;86;21534;-69
2022/07/13 02:15:10;;;;;;;5.42;1.10;;;;;;;15.14;74.11;99505.78;1619647;86;21205;-68
2022/07/13 02:17:43;;;;;;;1.87;0.80;;;;;;;15.09;74.83;99513.97;1657906;86;21081;-66
2022/07/13 02:20:15;;;;;;;1.12;0.80;;;;;;;15.04;75.20;99507.82;1664801;86;21128;-67
2022/07/13 02:22:47;;;;;;;1.80;0.82;;;;;;;14.98;75.73;99498.32;1664993;85;21132;-69
2022/07/13 02:25:17;;;;;;;3.12;0.95;;;;;;;14.91;76.50;99504.80;1664706;86;21100;-70
2022/07/13 02:27:50;;;;;;;1.62;0.88;;;;;;;14.85;77.04;99497.52;1664945;86;21116;-70
2022/07/13 02:30:26;;;;;;;2.22;0.70;;;;;;;14.82;77.65;99491.66;1664943;86;21104;-70
2022/07/13 02:32:59;;;;;;;2.00;1.10;;;;;;;14.84;77.92;99488.95;1664765;85;21037;-70
2022/07/13 02:35:29;;;;;;;0.93;0.80;;;;;;;14.83;78.39;99487.81;1664769;86;21092;-69
2022/07/13 02:38:02;;;;;;;1.50;0.78;;;;;;;14.80;78.60;99486.94;1665230;86;21069;-70
2022/07/13 02:40:31;;;;;;;1.50;0.70;;;;;;;14.76;78.87;99490.73;1664900;86;21061;-69
2022/07/13 02:43:02;;;;;;;2.17;0.90;;;;;;;14.77;79.17;99488.81;1664902;86;21128;-69
2022/07/13 02:45:33;;;;;;;2.77;0.80;;;;;;;14.74;79.34;99488.76;1664816;86;21535;-67
2022/07/13 02:48:04;;;;;;;2.87;0.80;;;;;;;14.68;79.49;99482.86;1664887;86;21508;-69
2022/07/13 02:50:35;;;;;;;1.35;0.68;;;;;;;14.66;79.79;99475.91;1664828;86;21080;-69
2022/07/13 02:53:04;;;;;;;1.92;0.70;;;;;;;14.65;79.89;99472.32;1664805;86;21068;-70
2022/07/13 02:55:35;;;;;;;5.10;0.90;;;;;;;14.66;80.25;99479.51;1654039;86;21057;-67
2022/07/13 02:58:06;;;;;;;2.45;0.82;;;;;;;14.65;80.31;99476.45;1664945;86;21095;-68
2022/07/13 03:00:37;;;;;;;3.45;0.70;;;;;;;14.64;80.49;99469.27;1664861;86;21093;-69
2022/07/13 03:03:07;;;;;;;2.52;0.70;;;;;;;14.64;80.80;99469.27;1664950;86;22080;-69
2022/07/13 03:05:38;;;;;;;2.65;0.75;;;;;;;14.65;80.82;99476.45;1653700;86;21108;-69
2022/07/13 03:08:07;;;;;;;2.85;0.70;;;;;;;14.63;80.76;99469.52;1664850;86;21053;-69
2022/07/13 03:10:37;;;;;;;1.40;0.90;;;;;;;14.55;80.92;99465.23;1664799;86;21092;-68
2022/07/13 03:13:08;;;;;;;2.02;0.80;;;;;;;14.51;81.09;99464.05;1665814;86;21075;-69
2022/07/13 03:15:39;;;;;;;1.32;0.70;;;;;;;14.53;81.38;99464.11;1675517;85;21029;-70
2022/07/13 03:18:09;;;;;;;3.22;0.80;;;;;;;14.55;81.52;99463.86;1690402;84;21005;-68
2022/07/13 03:20:41;;;;;;;2.72;0.90;;;;;;;14.52;81.62;99462.97;1685634;84;21062;-69
2022/07/13 03:23:12;;;;;;;3.22;0.75;;;;;;;14.50;81.85;99459.08;1660504;86;21042;-70
2022/07/13 03:25:41;;;;;;;1.47;0.70;;;;;;;14.48;81.90;99449.39;1700519;84;21032;-70
2022/07/13 03:28:13;;;;;;;2.47;0.85;;;;;;;14.48;81.98;99451.61;1690332;84;21049;-70
2022/07/13 03:30:46;;;;;;;1.25;0.80;;;;;;;14.48;82.12;99447.47;1687408;84;21065;-69
2022/07/13 03:33:16;;;;;;;1.55;0.90;;;;;;;14.46;81.88;99447.42;1672220;86;21073;-70
2022/07/13 03:35:46;;;;;;;3.08;0.85;;;;;;;14.43;82.21;99447.91;1660951;85;21003;-68
2022/07/13 03:38:17;;;;;;;1.17;0.70;;;;;;;14.42;82.33;99440.19;1671600;86;21058;-69
2022/07/13 03:40:48;;;;;;;3.62;0.70;;;;;;;14.43;82.59;99451.50;1681531;84;21086;-70
2022/07/13 03:43:18;;;;;;;2.95;0.85;;;;;;;14.42;82.57;99443.45;1674059;85;21536;-70
2022/07/13 03:45:49;;;;;;;2.00;0.68;;;;;;;14.42;82.76;99435.19;1669357;85;21040;-69
2022/07/13 03:48:20;;;;;;;1.57;0.90;;;;;;;14.44;82.86;99441.31;1676916;85;21041;-70
2022/07/13 03:50:50;;;;;;;1.92;0.80;;;;;;;14.45;82.91;99431.42;1677196;85;21068;-70
2022/07/13 03:53:21;;;;;;;1.00;0.70;;;;;;;14.45;82.87;99430.59;1677021;85;21112;-70
2022/07/13 03:55:51;;;;;;;2.02;0.60;;;;;;;14.43;82.89;99432.22;1674432;85;21088;-70
2022/07/13 03:58:23;;;;;;;2.75;0.80;;;;;;;14.43;83.01;99433.59;1673742;85;21088;-70
2022/07/13 04:00:55;;;;;;;0.60;0.55;;;;;;;14.46;82.95;99432.27;1700236;84;21465;-71
2022/07/13 04:03:25;;;;;;;1.70;0.70;;;;;;;14.48;82.83;99427.34;1700560;84;21056;-71
2022/07/13 04:05:56;;;;;;;0.70;0.70;;;;;;;14.47;82.75;99433.94;1700547;84;21104;-70
2022/07/13 04:08:27;;;;;;;1.85;0.50;;;;;;;14.46;82.91;99430.88;1679554;84;21033;-70
2022/07/13 04:10:58;;;;;;;0.55;0.50;;;;;;;14.48;82.76;99430.94;1676536;84;21038;-68
2022/07/13 04:13:28;;;;;;;1.20;0.70;;;;;;;14.50;82.68;99444.47;1668012;86;21056;-70
2022/07/13 04:15:59;;;;;;;1.07;0.82;;;;;;;14.49;82.60;99430.39;1641409;85;21108;-71
2022/07/13 04:18:32;;;;;;;3.75;0.88;;;;;;;14.48;82.63;99414.94;1653461;86;21501;-70
2022/07/13 04:21:06;;;;;;;1.30;0.70;;;;;;;14.48;82.77;99425.42;1635374;86;21097;-70
2022/07/13 04:23:38;;;;;;;0.98;0.50;;;;;;;14.52;82.77;99415.57;1614374;87;21113;-70
2022/07/13 04:26:07;;;;;;;0.70;0.68;;;;;;;14.55;82.67;99429.40;1652430;86;21118;-70
2022/07/13 04:28:39;;;;;;;3.80;1.30;;;;;;;14.54;82.60;99421.67;1653321;86;21049;-71
2022/07/13 04:31:10;;;;;;;5.30;0.72;;;;;;;14.54;82.70;99418.08;1647079;86;21584;-69
2022/07/13 04:33:42;;;;;;;1.10;0.50;;;;;;;14.53;82.81;99420.00;1634898;86;21088;-71
2022/07/13 04:36:12;;;;;;;1.00;0.50;;;;;;;14.55;82.78;99416.45;1652243;86;21455;-70
2022/07/13 04:38:44;;;;;;;0.70;0.60;;;;;;;14.56;82.86;99417.29;1663037;86;21585;-71
2022/07/13 04:41:14;;;;;;;1.75;0.70;;;;;;;14.56;83.10;99418.67;1651626;86;21087;-71
2022/07/13 04:43:45;;;;;;;0.80;0.75;;;;;;;14.57;83.06;99413.45;1650920;86;21057;-69
2022/07/13 04:46:17;;;;;;;0.70;0.60;;;;;;;14.62;83.17;99413.54;1645690;86;21053;-70
2022/07/13 04:48:49;;;;;;;1.62;0.70;;;;;;;14.69;83.05;99421.11;1658024;86;21039;-71
2022/07/13 04:51:19;;;;;;;1.47;0.70;;;;;;;14.68;82.80;99408.95;1652085;86;21092;-70
2022/07/13 04:53:51;;;;;;;2.92;0.70;;;;;;;14.67;82.88;99419.15;1663349;86;21068;-71
2022/07/13 04:56:22;;;;;;;1.05;0.50;;;;;;;14.68;82.80;99412.55;1641729;86;21039;-70
2022/07/13 04:58:52;;;;;;;0.80;0.50;;;;;;;14.71;82.92;99407.91;1663261;86;21467;-70
2022/07/13 05:01:23;;;;;;;2.37;0.88;;;;;;;14.72;82.77;99413.72;1641537;86;21106;-70
2022/07/13 05:03:58;;;;;;;1.12;0.78;;;;;;;14.73;82.81;99409.05;1652382;86;21476;-69
2022/07/13 05:06:28;;;;;;;4.28;0.90;;;;;;;14.74;82.76;99406.04;1657874;85;21100;-71
2022/07/13 05:08:59;;;;;;;0.90;0.60;;;;;;;14.76;82.42;99398.35;1637680;86;21057;-71
2022/07/13 05:11:33;;;;;;;1.40;0.60;;;;;;;14.79;82.37;99397.02;1652356;86;21467;-70
2022/07/13 05:14:02;;;;;;;1.25;0.60;;;;;;;14.80;82.30;99385.73;1665361;84;21024;-70
2022/07/13 05:16:33;;;;;;;0.82;0.50;;;;;;;14.81;82.18;99400.36;1682471;85;21017;-72
2022/07/13 05:19:04;;;;;;;2.12;0.62;;;;;;;14.86;82.29;99395.77;1690691;85;21302;-72
2022/07/13 05:21:35;;;;;;;1.52;0.60;;;;;;;14.89;82.27;99395.27;1723154;83;21065;-69
2022/07/13 05:24:05;;;;;;;1.37;0.70;;;;;;;14.94;82.16;99395.05;1700079;83;21058;-72
2022/07/13 05:26:39;;;;;;;0.95;0.47;;;;;;;14.93;82.14;99393.38;1718954;83;21034;-70
2022/07/13 05:29:10;;;;;;;1.80;0.95;;;;;;;14.91;82.04;99396.39;1703650;83;21031;-71
2022/07/13 05:31:41;;;;;;;3.05;0.60;;;;;;;14.91;81.91;99394.47;1728215;83;21038;-71
2022/07/13 05:34:12;;;;;;;2.00;0.70;;;;;;;14.94;82.00;99395.89;1716968;83;21100;-71
2022/07/13 05:36:44;;;;;;;0.75;0.60;;;;;;;14.94;81.96;99384.86;1715518;83;21044;-71
2022/07/13 05:39:14;;;;;;;1.02;0.47;;;;;;;14.95;82.18;99393.42;1729926;83;21026;-70
2022/07/13 05:41:45;;;;;;;0.50;0.40;;;;;;;14.96;81.87;99390.16;1723156;83;21050;-71
2022/07/13 05:44:16;;;;;;;2.92;0.70;;;;;;;14.99;81.92;99386.35;1722458;83;21528;-70
2022/07/13 05:46:47;;;;;;;1.15;0.70;;;;;;;14.97;81.74;99385.77;1730160;83;21107;-72
2022/07/13 05:49:38;;;;;;;0.85;0.68;;;;;;;14.95;82.03;99382.94;1729366;83;21042;-71
2022/07/13 05:52:09;;;;;;;1.17;0.50;;;;;;;14.97;82.39;99385.77;1728320;83;21098;-69
2022/07/13 05:54:38;;;;;;;2.77;0.80;;;;;;;14.99;82.47;99397.39;1716824;82;21009;-71
2022/07/13 05:57:11;;;;;;;1.50;0.70;;;;;;;14.96;82.61;99389.61;1718758;83;21046;-71
2022/07/13 05:59:40;;;;;;;1.77;0.53;;;;;;;14.94;83.32;99397.27;1729301;83;21062;-70
2022/07/13 06:02:11;;;;;;;0.95;0.42;;;;;;;14.86;83.71;99390.25;1728475;83;21038;-72
2022/07/13 06:04:42;;;;;;;2.62;0.68;;;;;;;14.84;84.32;99386.07;1725418;83;21034;-71
2022/07/13 06:07:14;;;;;;;2.75;0.70;;;;;;;14.84;84.93;99388.83;1725618;83;21133;-74
2022/07/13 06:09:45;;;;;;;1.10;0.70;;;;;;;14.81;85.51;99388.78;1725371;83;21487;-72
2022/07/13 06:12:15;;;;;;;1.62;0.70;;;;;;;14.78;85.75;99380.18;1716420;83;21062;-71
2022/07/13 06:14:45;;;;;;;1.80;1.42;;;;;;;14.77;86.15;99379.34;1723820;81;21064;-71
2022/07/13 06:17:16;;;;;;;1.05;0.80;;;;;;;14.79;86.40;99381.30;1719392;83;21050;-71
2022/07/13 06:19:46;;;;;;;3.47;1.00;;;;;;;14.79;86.94;99383.23;1721567;82;20986;-71
2022/07/13 06:22:17;;;;;;;1.55;0.80;;;;;;;14.79;87.23;99388.20;1722127;83;21014;-70
2022/07/13 06:24:47;;;;;;;1.12;0.57;;;;;;;14.75;87.34;99380.14;1720608;83;21297;-71
2022/07/13 06:27:18;;;;;;;1.75;0.70;;;;;;;14.75;87.70;99377.92;1720056;83;21437;-71
2022/07/13 06:29:47;;;;;;;2.25;0.70;;;;;;;14.76;87.80;99390.63;1720069;83;21526;-70
2022/07/13 06:32:17;;;;;;;1.95;0.72;;;;;;;14.76;87.86;99380.97;1723209;83;21058;-69
2022/07/13 06:34:47;;;;;;;2.87;0.80;;;;;;;14.76;88.24;99383.19;1720234;83;21109;-70
2022/07/13 06:37:18;;;;;;;3.95;0.60;;;;;;;14.77;88.44;99380.72;1719412;83;21009;-70
2022/07/13 06:39:52;;;;;;;0.70;0.70;;;;;;;14.80;88.54;99377.46;1720112;83;21016;-69
2022/07/13 06:42:23;;;;;;;1.07;0.70;;;;;;;14.81;88.70;99380.52;1720092;83;21030;-71
2022/07/13 06:44:53;;;;;;;1.67;0.60;;;;;;;14.84;88.94;99383.31;1721668;83;21014;-70
2022/07/13 06:47:23;;;;;;;0.75;0.60;;;;;;;14.89;89.01;99375.13;1721749;83;21442;-72
2022/07/13 06:49:53;;;;;;;0.80;0.55;;;;;;;14.95;89.11;99381.56;1720516;83;21014;-70
2022/07/13 06:52:24;;;;;;;1.65;0.90;;;;;;;14.96;88.53;99377.75;1720206;83;21068;-71
2022/07/13 06:54:54;;;;;;;2.77;0.70;;;;;;;14.96;88.44;99382.72;1723877;83;20990;-72
2022/07/13 06:57:24;;;;;;;2.55;0.50;;;;;;;14.99;88.40;99376.70;1719378;83;21021;-71
2022/07/13 06:59:53;;;;;;;0.62;0.62;;;;;;;15.03;88.21;99386.69;1725081;83;21029;-73
2022/07/13 07:02:24;;;;;;;1.92;0.78;;;;;;;15.05;88.28;99379.00;1720260;83;21065;-72
2022/07/13 07:04:55;;;;;;;2.10;1.00;;;;;;;15.07;88.24;99381.80;1720842;83;21091;-72
2022/07/13 07:07:25;;;;;;;2.08;1.00;;;;;;;15.10;88.15;99384.59;1719186;83;21008;-71
2022/07/13 07:09:55;;;;;;;0.80;0.60;;;;;;;15.12;88.01;99379.11;1717176;83;21012;-70
2022/07/13 07:12:25;;;;;;;3.12;0.70;;;;;;;15.18;88.43;99380.86;1722757;83;21436;-73
2022/07/13 07:14:56;;;;;;;2.30;0.80;;;;;;;15.22;88.44;99379.81;1726361;83;21540;-72
2022/07/13 07:17:25;;;;;;;1.70;0.70;;;;;;;15.23;88.45;99371.28;1721874;83;21074;-71
2022/07/13 07:20:03;;;;;;;0.72;0.70;;;;;;;15.23;88.42;99378.17;1715252;83;21070;-69
2022/07/13 07:22:32;;;;;;;2.75;0.80;;;;;;;15.25;88.59;99381.23;1702662;83;21094;-66
2022/07/13 07:25:01;;;;;;;2.27;0.72;;;;;;;15.26;88.93;99373.24;1701080;83;21057;-67
2022/07/13 07:27:31;;;;;;;1.25;0.70;;;;;;;15.29;89.06;99379.09;1710881;83;21116;-70
2022/07/13 07:30:01;;;;;;;0.53;0.50;;;;;;;15.27;89.12;99374.91;1722050;82;21565;-68
2022/07/13 07:32:31;;;;;;;0.88;0.50;;;;;;;15.23;89.01;99372.66;1702587;83;21031;-68
2022/07/13 07:35:01;;;;;;;1.72;0.60;;;;;;;15.22;89.35;99377.89;1701515;83;21063;-69
2022/07/13 07:37:31;;;;;;;1.35;0.68;;;;;;;15.21;89.59;99374.84;1715252;83;21042;-69
2022/07/13 07:40:00;;;;;;;1.50;0.82;;;;;;;15.22;90.01;99368.23;1727529;83;21031;-69
2022/07/13 07:42:31;;;;;;;1.77;0.70;;;;;;;15.22;90.22;99361.88;1720136;83;21059;-67
2022/07/13 07:45:01;;;;;;;1.20;0.90;;;;;;;15.25;90.48;99370.19;1716514;83;21081;-68
2022/07/13 07:47:32;;;;;;;1.70;0.70;;;;;;;15.21;90.34;99366.56;1713018;82;20999;-70
2022/07/13 07:50:01;;;;;;;1.22;0.80;;;;;;;15.18;90.53;99366.23;1641188;87;21103;-71
2022/07/13 07:52:31;;;;;;;0.82;0.55;;;;;;;15.16;90.88;99371.16;1640909;87;21521;-72
2022/07/13 07:55:01;;;;;;;1.92;0.60;;;;;;;15.14;91.08;99367.28;1638270;87;21475;-74
2022/07/13 07:57:33;;;;;;;0.80;0.65;;;;;;;15.12;91.09;99369.45;1644620;86;21183;-74
2022/07/13 08:00:10;;;;;;;1.27;0.75;;;;;;;15.13;91.42;99375.27;1624554;87;21133;-71
2022/07/13 08:02:41;;;;;;;1.25;0.82;;;;;;;15.14;91.63;99385.75;1642445;86;21592;-72
2022/07/13 08:05:14;;;;;;;0.88;0.60;;;;;;;15.11;91.58;99391.23;1640257;87;21049;-70
2022/07/13 08:07:49;;;;;;;0.95;0.65;;;;;;;15.13;91.52;99384.92;1672035;83;21034;-70
2022/07/13 08:10:26;;;;;;;0.88;0.50;;;;;;;15.12;91.72;99389.31;1728443;83;21066;-71
2022/07/13 08:13:01;;;;;;;0.60;0.55;;;;;;;15.15;92.08;99403.44;1717695;83;21102;-72
2022/07/13 08:15:31;;;;;;;2.30;0.80;;;;;;;15.15;91.94;99401.22;1723348;83;21109;-70
2022/07/13 08:18:02;;;;;;;2.02;0.60;;;;;;;15.13;92.00;99394.58;1722308;83;21034;-67
2022/07/13 08:20:32;;;;;;;2.37;0.68;;;;;;;15.15;92.12;99391.56;1729021;82;21121;-66
2022/07/13 08:23:02;;;;;;;0.80;0.60;;;;;;;15.17;92.28;99388.02;1726817;83;21012;-65
2022/07/13 08:25:31;;;;;;;1.20;0.80;;;;;;;15.20;92.62;99383.37;1729491;82;21086;-66
2022/07/13 08:28:02;;;;;;;1.25;0.60;;;;;;;15.21;92.81;99393.31;1718559;83;21027;-66
2022/07/13 08:30:36;;;;;;;1.30;0.65;;;;;;;15.24;93.26;99402.47;1728727;83;21054;-64
2022/07/13 08:33:03;;;;;;;2.22;0.80;;;;;;;15.27;93.44;99392.30;1718880;83;21038;-65
2022/07/13 08:38:38;;;;;;;0.60;0.60;;;;;;;15.31;93.56;99392.09;1722133;83;21039;-68
2022/07/13 08:41:07;;;;;;;0.95;0.45;;;;;;;15.31;93.75;99398.99;1720418;83;21034;-65
2022/07/13 08:43:40;;;;;;;0.98;0.70;;;;;;;15.30;93.87;99393.17;1727160;83;20998;-64
2022/07/13 08:46:09;;;;;;;0.50;0.50;;;;;;;15.32;94.01;99399.83;1711822;83;21058;-68
2022/07/13 08:48:38;;;;;;;2.62;0.78;;;;;;;15.33;93.98;99404.26;1723345;83;21133;-68
2022/07/13 08:51:08;;;;;;;0.50;0.50;;;;;;;15.32;94.21;99402.58;1707608;83;21019;-74
2022/07/13 08:53:37;;;;;;;0.40;0.40;;;;;;;15.35;94.22;99397.39;1714168;83;21066;-68
2022/07/13 08:56:07;;;;;;;0.70;0.55;;;;;;;15.40;94.06;99406.30;1714727;83;21075;-68
2022/07/13 08:58:38;;;;;;;0.95;0.50;;;;;;;15.42;94.13;99402.73;1716356;83;21051;-68
2022/07/13 09:01:14;;;;;;;0.85;0.50;;;;;;;15.41;94.08;99387.27;1728508;83;21113;-69
2022/07/13 09:03:44;;;;;;;0.42;0.40;;;;;;;15.40;94.07;99398.85;1727134;83;21082;-69
2022/07/13 09:06:48;;;;;;;0.78;0.40;;;;;;;15.42;94.23;99393.91;1718911;83;21026;-68
2022/07/13 09:09:35;;;;;;;0.90;0.50;;;;;;;15.47;94.35;99391.77;1720480;83;21074;-67
2022/07/13 09:12:19;;;;;;;0.80;0.60;;;;;;;15.50;94.44;99394.02;1706943;83;21090;-67
2022/07/13 09:14:58;;;;;;;0.42;0.42;;;;;;;15.54;94.52;99398.78;1712251;82;21520;-70
2022/07/13 09:17:36;;;;;;;1.07;0.60;;;;;;;15.62;94.50;99400.33;1715565;83;21082;-70
2022/07/13 09:20:19;;;;;;;0.85;0.57;;;;;;;15.68;94.50;99394.33;1685328;83;21067;-67
2022/07/13 09:23:01;;;;;;;0.78;0.40;;;;;;;15.73;94.40;99397.16;1707124;83;21096;-68
2022/07/13 09:25:36;;;;;;;1.70;0.42;;;;;;;15.76;93.90;99403.55;1724872;83;21057;-67
2022/07/13 09:28:12;;;;;;;0.50;0.50;;;;;;;15.77;93.33;99402.45;1679655;84;21560;-68
2022/07/13 09:30:45;;;;;;;1.47;0.50;;;;;;;15.79;93.02;99401.66;1719260;83;21078;-66
2022/07/13 09:33:15;;;;;;;1.32;0.50;;;;;;;15.77;92.55;99390.86;1719009;83;21505;-69
2022/07/13 09:35:52;;;;;;;0.68;0.53;;;;;;;15.79;92.57;99390.06;1651790;84;21090;-68
2022/07/13 09:38:38;;;;;;;0.80;0.78;;;;;;;15.83;92.54;99384.86;1712884;83;21093;-70
2022/07/13 09:41:24;;;;;;;1.00;0.40;;;;;;;15.83;92.46;99386.23;1695279;83;21030;-69
2022/07/13 09:47:06;;;;;;;0.70;0.50;;;;;;;15.86;91.90;99388.48;1703285;83;21030;-69
2022/07/13 09:49:44;;;;;;;1.45;0.60;;;;;;;15.89;91.99;99382.99;1720897;83;21025;-69
2022/07/13 09:52:17;;;;;;;0.95;0.50;;;;;;;15.91;91.84;99371.98;1703235;83;21105;-71
2022/07/13 09:54:51;;;;;;;1.20;0.60;;;;;;;15.96;91.60;99389.16;1705101;83;21114;-70
2022/07/13 09:57:21;;;;;;;0.47;0.47;;;;;;;15.96;91.31;99390.54;1704780;83;21078;-76
2022/07/13 09:59:51;;;;;;;0.60;0.60;;;;;;;15.98;91.28;99399.41;1703140;83;21022;-70
2022/07/13 10:02:23;;;;;;;0.40;0.40;;;;;;;16.02;91.31;99398.64;1714580;83;21002;-72
2022/07/13 10:04:54;;;;;;;0.57;0.50;;;;;;;16.05;91.08;99394.52;1714773;83;21026;-71
2022/07/13 10:07:25;;;;;;;0.80;0.55;;;;;;;16.07;91.15;99394.55;1673218;83;21098;-71
2022/07/13 10:10:08;;;;;;;1.52;0.50;;;;;;;16.09;90.98;99386.00;1710377;83;21062;-71
2022/07/13 10:12:39;;;;;;;0.50;0.50;;;;;;;16.12;90.68;99387.70;1690235;83;21121;-72
2022/07/13 10:15:11;;;;;;;3.12;0.50;;;;;;;16.13;90.13;99385.77;1692192;83;21059;-71
2022/07/13 10:17:46;;;;;;;0.53;0.50;;;;;;;16.12;89.56;99386.32;1660145;86;21073;-70
2022/07/13 10:20:20;;;;;;;0.50;0.50;;;;;;;16.12;89.34;99384.94;1688701;83;21521;-70
2022/07/13 10:22:51;;;;;;;1.07;0.40;;;;;;;16.11;89.03;99376.36;1649684;86;21055;-72
2022/07/13 10:25:30;;;;;;;0.98;0.60;;;;;;;16.13;89.12;99374.17;1671095;86;21139;-71
2022/07/13 10:28:07;;;;;;;0.57;0.53;;;;;;;16.13;88.71;99373.34;1687021;85;21031;-74
2022/07/13 10:30:36;;;;;;;1.27;0.45;;;;;;;16.13;88.54;99371.41;1671004;86;21044;-75
2022/07/13 10:33:24;;;;;;;1.27;0.40;;;;;;;16.12;88.48;99370.28;1670333;85;21049;-75
2022/07/13 10:35:58;;;;;;;1.05;0.40;;;;;;;16.11;88.65;99368.62;1688703;85;21317;-73
2022/07/13 10:38:27;;;;;;;0.50;0.40;;;;;;;16.11;88.62;99353.42;1670644;86;21808;-74
2022/07/13 10:41:20;;;;;;;0.75;0.60;;;;;;;16.11;88.61;99362.55;1683359;84;21090;-74
2022/07/13 10:44:09;;;;;;;0.53;0.50;;;;;;;16.12;88.77;99371.67;1659388;85;21188;-75
2022/07/13 10:46:51;;;;;;;0.70;0.50;;;;;;;16.13;88.48;99383.02;1670522;86;21085;-75
2022/07/13 10:49:38;;;;;;;1.45;0.68;;;;;;;16.11;88.54;99376.36;1683008;84;21052;-77
2022/07/13 10:52:27;;;;;;;0.80;0.40;;;;;;;16.11;88.57;99364.47;1688630;83;21080;-75
2022/07/13 10:55:11;;;;;;;0.50;0.50;;;;;;;16.13;88.38;99361.73;1683666;85;21059;-74
2022/07/13 10:57:43;;;;;;;1.35;0.60;;;;;;;16.11;87.92;99366.69;1688438;84;21453;-74
2022/07/13 11:03:01;;;;;;;0.53;0.50;;;;;;;16.14;88.59;99370.31;1655657;86;21113;-73
2022/07/13 11:05:30;;;;;;;0.50;0.50;;;;;;;16.16;88.59;99363.98;1659531;85;21112;-73
2022/07/13 11:07:58;;;;;;;0.82;0.40;;;;;;;16.16;88.61;99368.67;1670863;86;21542;-74
2022/07/13 11:10:30;;;;;;;0.80;0.60;;;;;;;16.14;88.77;99373.08;1645700;86;21488;-72
2022/07/13 11:13:04;;;;;;;1.87;0.90;;;;;;;16.12;88.95;99372.50;1688555;85;21079;-71
2022/07/13 11:15:54;;;;;;;1.90;0.70;;;;;;;16.15;88.99;99379.44;1670545;86;21060;-71
2022/07/13 11:18:31;;;;;;;0.62;0.50;;;;;;;16.16;89.14;99376.96;1683112;85;21068;-72
2022/07/13 11:21:13;;;;;;;2.47;1.30;;;;;;;16.16;89.10;99376.42;1659723;86;21062;-68
2022/07/13 11:27:00;;;;;;;1.52;1.37;;;;;;;16.16;89.34;99370.06;1709126;83;21454;-71
2022/07/13 11:29:52;;;;;;;1.42;0.70;;;;;;;16.15;89.04;99384.42;1716088;83;21057;-73
2022/07/13 11:32:25;;;;;;;1.20;0.70;;;;;;;16.16;89.13;99381.95;1713845;83;21031;-70
2022/07/13 11:34:55;;;;;;;1.25;0.70;;;;;;;16.17;88.80;99367.58;1692876;83;21045;-71
2022/07/13 11:37:25;;;;;;;1.50;0.50;;;;;;;16.18;88.81;99370.09;1723479;83;21106;-71
2022/07/13 11:39:55;;;;;;;0.50;0.50;;;;;;;16.18;88.22;99371.47;1712698;83;21051;-71
2022/07/13 11:42:24;;;;;;;2.00;0.40;;;;;;;16.18;87.98;99360.41;1711885;82;21128;-72
2022/07/13 11:44:53;;;;;;;0.65;0.50;;;;;;;16.21;87.75;99366.52;1714118;82;21018;-72
2022/07/13 11:47:21;;;;;;;0.88;0.57;;;;;;;16.22;87.68;99365.42;1675246;85;21083;-71
2022/07/13 11:49:53;;;;;;;0.40;0.33;;;;;;;16.24;87.53;99359.08;1654720;85;21481;-72
2022/07/13 11:52:29;;;;;;;2.75;0.40;;;;;;;16.24;87.39;99368.75;1675396;85;21076;-70
2022/07/13 11:55:04;;;;;;;2.80;0.75;;;;;;;16.24;87.47;99369.59;1675538;85;21031;-71
2022/07/13 11:57:34;;;;;;;1.25;1.05;;;;;;;16.27;87.33;99372.41;1675209;85;21123;-73
2022/07/13 12:00:09;;;;;;;1.37;0.45;;;;;;;16.25;87.39;99374.02;1679870;84;21562;-73
2022/07/13 12:02:42;;;;;;;0.80;0.50;;;;;;;16.25;87.51;99374.57;1669787;84;21512;-74
2022/07/13 12:05:12;;;;;;;1.95;1.40;;;;;;;16.24;87.62;99372.36;1697636;83;21091;-73
2022/07/13 12:07:44;;;;;;;0.93;0.70;;;;;;;16.24;87.66;99364.61;1728420;83;21022;-71
2022/07/13 12:10:14;;;;;;;0.90;0.50;;;;;;;16.24;87.87;99366.83;1724266;83;21071;-71